createdAt,value
2017-07-10T00:00:19.065Z,15.08
2017-07-10T00:01:19.108Z,15.09
2017-07-10T00:02:13.225Z,15.13
2017-07-10T00:03:13.150Z,15.11
2017-07-10T00:04:08.492Z,15.09
2017-07-10T00:05:09.359Z,15.08
2017-07-10T00:06:09.410Z,15.08
2017-07-10T00:07:09.386Z,15.01
2017-07-10T00:08:09.402Z,14.96
2017-07-10T00:09:10.452Z,14.89
2017-07-10T00:09:59.513Z,14.88
2017-07-10T00:10:48.557Z,14.87
2017-07-10T00:11:42.591Z,14.86
2017-07-10T00:12:37.661Z,14.82
2017-07-10T00:13:32.608Z,14.81
2017-07-10T00:14:20.662Z,14.80
2017-07-10T00:15:08.656Z,14.80
2017-07-10T00:15:56.695Z,14.77
2017-07-10T00:16:50.798Z,14.76
2017-07-10T00:17:39.879Z,14.74
2017-07-10T00:18:27.847Z,14.72
2017-07-10T00:19:16.057Z,14.72
2017-07-10T00:20:03.957Z,14.73
2017-07-10T00:21:04.043Z,14.74
2017-07-10T00:21:52.286Z,14.75
2017-07-10T00:22:52.070Z,14.80
2017-07-10T00:23:47.088Z,14.80
2017-07-10T00:24:41.189Z,14.79
2017-07-10T00:25:36.201Z,14.82
2017-07-10T00:26:24.290Z,14.81
2017-07-10T00:27:18.301Z,14.78
2017-07-10T00:28:13.406Z,14.76
2017-07-10T00:29:14.459Z,14.74
2017-07-10T00:30:14.383Z,14.74
2017-07-10T00:31:09.422Z,14.72
2017-07-10T00:31:57.562Z,14.72
2017-07-10T00:32:45.535Z,14.74
2017-07-10T00:33:33.577Z,14.72
2017-07-10T00:34:22.569Z,14.72
2017-07-10T00:35:10.624Z,14.73
2017-07-10T00:35:58.721Z,14.70
2017-07-10T00:36:53.765Z,14.68
2017-07-10T00:37:48.826Z,14.70
2017-07-10T00:38:37.871Z,14.72
2017-07-10T00:39:27.248Z,14.71
2017-07-10T00:40:26.958Z,14.70
2017-07-10T00:41:15.899Z,14.70
2017-07-10T00:42:04.040Z,14.72
2017-07-10T00:42:52.161Z,14.74
2017-07-10T00:43:47.294Z,14.75
2017-07-10T00:44:41.092Z,14.76
2017-07-10T00:45:30.140Z,14.86
2017-07-10T00:46:24.264Z,14.86
2017-07-10T00:47:19.273Z,14.84
2017-07-10T00:48:19.275Z,14.80
2017-07-10T00:49:19.586Z,14.77
2017-07-10T00:50:19.374Z,14.75
2017-07-10T00:51:25.410Z,14.72
2017-07-10T00:52:25.474Z,14.76
2017-07-10T00:53:26.446Z,14.76
2017-07-10T00:54:25.549Z,14.74
2017-07-10T00:55:19.546Z,14.76
2017-07-10T00:56:20.595Z,14.71
2017-07-10T00:57:26.595Z,14.69
2017-07-10T00:58:26.708Z,14.71
2017-07-10T00:59:26.929Z,14.71
2017-07-10T01:00:26.655Z,14.68
2017-07-10T01:01:21.742Z,14.68
2017-07-10T01:02:16.819Z,14.71
2017-07-10T01:03:16.803Z,14.74
2017-07-10T01:04:11.825Z,14.70
2017-07-10T01:05:06.894Z,14.68
2017-07-10T01:06:06.942Z,14.68
2017-07-10T01:07:02.009Z,14.67
2017-07-10T01:07:57.046Z,14.64
2017-07-10T01:09:03.075Z,14.67
2017-07-10T01:09:57.095Z,14.64
2017-07-10T01:10:57.180Z,14.66
2017-07-10T01:11:52.206Z,14.66
2017-07-10T01:12:52.273Z,14.66
2017-07-10T01:13:40.286Z,14.69
2017-07-10T01:14:29.583Z,14.65
2017-07-10T01:15:23.439Z,14.64
2017-07-10T01:16:17.444Z,14.72
2017-07-10T01:17:06.387Z,14.77
2017-07-10T01:18:06.421Z,14.76
2017-07-10T01:19:12.566Z,14.74
2017-07-10T01:20:12.572Z,14.72
2017-07-10T01:21:13.481Z,14.70
2017-07-10T01:22:13.595Z,14.66
2017-07-10T01:23:13.618Z,14.63
2017-07-10T01:24:07.961Z,14.61
2017-07-10T01:25:01.733Z,14.60
2017-07-10T01:25:56.788Z,14.59
2017-07-10T01:26:46.024Z,14.58
2017-07-10T01:27:33.817Z,14.56
2017-07-10T01:28:21.897Z,14.55
2017-07-10T01:29:10.167Z,14.53
2017-07-10T01:30:09.984Z,14.52
2017-07-10T01:31:16.098Z,14.50
2017-07-10T01:32:11.064Z,14.50
2017-07-10T01:33:00.328Z,14.56
2017-07-10T01:33:54.102Z,14.60
2017-07-10T01:34:48.161Z,14.62
2017-07-10T01:35:42.170Z,14.64
2017-07-10T01:36:37.232Z,14.62
2017-07-10T01:37:31.309Z,14.65
2017-07-10T01:38:26.340Z,14.66
2017-07-10T01:39:14.350Z,14.70
2017-07-10T01:40:09.415Z,14.72
2017-07-10T01:41:04.451Z,14.70
2017-07-10T01:41:58.501Z,14.69
2017-07-10T01:42:58.577Z,14.68
2017-07-10T01:43:53.614Z,14.67
2017-07-10T01:44:47.644Z,14.65
2017-07-10T01:45:42.669Z,14.63
2017-07-10T01:46:31.758Z,14.60
2017-07-10T01:47:20.667Z,14.58
2017-07-10T01:48:08.804Z,14.55
2017-07-10T01:48:57.839Z,14.54
2017-07-10T01:49:45.879Z,14.51
2017-07-10T01:50:33.960Z,14.49
2017-07-10T01:51:22.884Z,14.47
2017-07-10T01:52:11.232Z,14.45
2017-07-10T01:52:59.119Z,14.44
2017-07-10T01:53:48.097Z,14.40
2017-07-10T01:54:43.396Z,14.40
2017-07-10T01:55:37.147Z,14.39
2017-07-10T01:56:38.229Z,14.38
2017-07-10T01:57:38.250Z,14.35
2017-07-10T01:58:38.249Z,14.30
2017-07-10T01:59:33.420Z,14.29
2017-07-10T02:00:27.398Z,14.34
2017-07-10T02:01:16.433Z,14.34
2017-07-10T02:02:10.426Z,14.32
2017-07-10T02:02:59.495Z,14.30
2017-07-10T02:03:47.521Z,14.28
2017-07-10T02:04:36.784Z,14.27
2017-07-10T02:05:25.592Z,14.24
2017-07-10T02:06:19.615Z,14.26
2017-07-10T02:07:20.787Z,14.26
2017-07-10T02:08:20.704Z,14.29
2017-07-10T02:09:15.789Z,14.33
2017-07-10T02:10:10.821Z,14.34
2017-07-10T02:11:04.884Z,14.35
2017-07-10T02:11:52.902Z,14.36
2017-07-10T02:12:52.934Z,14.36
2017-07-10T02:13:52.983Z,14.36
2017-07-10T02:14:46.998Z,14.34
2017-07-10T02:15:47.118Z,14.34
2017-07-10T02:16:42.054Z,14.29
2017-07-10T02:17:37.071Z,14.27
2017-07-10T02:18:37.101Z,14.26
2017-07-10T02:19:32.199Z,14.25
2017-07-10T02:20:27.268Z,14.26
2017-07-10T02:21:22.465Z,14.26
2017-07-10T02:22:11.291Z,14.28
2017-07-10T02:23:06.324Z,14.27
2017-07-10T02:24:00.474Z,14.27
2017-07-10T02:24:54.442Z,14.27
2017-07-10T02:25:48.487Z,14.29
2017-07-10T02:26:48.529Z,14.33
2017-07-10T02:27:37.540Z,14.34
2017-07-10T02:28:26.592Z,14.34
2017-07-10T02:29:15.660Z,14.31
2017-07-10T02:30:03.757Z,14.26
2017-07-10T02:30:52.796Z,14.28
2017-07-10T02:31:41.790Z,14.25
2017-07-10T02:32:30.962Z,14.23
2017-07-10T02:33:30.865Z,14.20
2017-07-10T02:34:24.971Z,14.22
2017-07-10T02:35:13.930Z,14.20
2017-07-10T02:36:08.998Z,14.20
2017-07-10T02:37:03.029Z,14.22
2017-07-10T02:37:57.136Z,14.23
2017-07-10T02:38:52.059Z,14.23
2017-07-10T02:39:47.200Z,14.24
2017-07-10T02:40:36.333Z,14.24
2017-07-10T02:41:30.280Z,14.22
2017-07-10T02:42:25.195Z,14.22
2017-07-10T02:43:14.346Z,14.21
2017-07-10T02:44:14.369Z,14.20
2017-07-10T02:45:15.447Z,14.16
2017-07-10T02:46:15.430Z,14.12
2017-07-10T02:47:21.497Z,14.10
2017-07-10T02:48:21.611Z,14.08
2017-07-10T02:49:21.712Z,14.08
2017-07-10T02:50:27.551Z,14.05
2017-07-10T02:51:27.622Z,14.05
2017-07-10T02:52:28.617Z,14.05
2017-07-10T02:53:28.811Z,14.02
2017-07-10T02:54:34.774Z,13.96
2017-07-10T02:55:29.707Z,13.94
2017-07-10T02:56:29.767Z,13.94
2017-07-10T02:57:24.874Z,13.92
2017-07-10T02:58:19.883Z,13.92
2017-07-10T02:59:20.908Z,13.94
2017-07-10T03:00:20.879Z,13.92
2017-07-10T03:01:20.993Z,13.92
2017-07-10T03:02:21.132Z,13.93
2017-07-10T03:03:22.057Z,13.94
2017-07-10T03:04:23.092Z,13.94
2017-07-10T03:05:17.035Z,13.93
2017-07-10T03:06:17.124Z,13.96
2017-07-10T03:07:12.145Z,13.97
2017-07-10T03:08:07.266Z,14.00
2017-07-10T03:09:07.231Z,14.00
2017-07-10T03:10:02.344Z,14.03
2017-07-10T03:10:57.371Z,14.08
2017-07-10T03:11:57.319Z,14.06
2017-07-10T03:12:52.489Z,14.06
2017-07-10T03:13:47.698Z,14.04
2017-07-10T03:14:48.444Z,14.02
2017-07-10T03:15:48.777Z,14.02
2017-07-10T03:16:48.523Z,14.03
2017-07-10T03:17:43.634Z,14.03
2017-07-10T03:18:37.688Z,14.05
2017-07-10T03:19:37.638Z,14.04
2017-07-10T03:20:32.685Z,14.03
2017-07-10T03:21:27.779Z,14.02
2017-07-10T03:22:27.832Z,14.01
2017-07-10T03:23:22.766Z,13.98
2017-07-10T03:24:17.907Z,13.99
2017-07-10T03:25:11.984Z,14.00
2017-07-10T03:26:17.956Z,13.97
2017-07-10T03:27:12.038Z,13.93
2017-07-10T03:28:13.046Z,13.92
2017-07-10T03:29:08.074Z,13.88
2017-07-10T03:30:08.039Z,13.88
2017-07-10T03:31:08.133Z,13.87
2017-07-10T03:32:08.165Z,13.87
2017-07-10T03:33:08.223Z,13.86
2017-07-10T03:34:08.272Z,13.86
2017-07-10T03:35:08.266Z,13.84
2017-07-10T03:36:08.346Z,13.88
2017-07-10T03:37:08.331Z,13.85
2017-07-10T03:38:08.441Z,13.92
2017-07-10T03:39:08.428Z,13.89
2017-07-10T03:40:08.508Z,13.90
2017-07-10T03:41:08.577Z,13.87
2017-07-10T03:42:08.543Z,13.89
2017-07-10T03:43:08.576Z,13.92
2017-07-10T03:44:08.606Z,13.90
2017-07-10T03:45:08.604Z,13.90
2017-07-10T03:46:08.693Z,13.94
2017-07-10T03:47:08.821Z,13.94
2017-07-10T03:48:02.747Z,13.97
2017-07-10T03:48:56.859Z,13.94
2017-07-10T03:49:45.838Z,13.96
2017-07-10T03:50:34.870Z,14.00
2017-07-10T03:51:23.992Z,14.06
2017-07-10T03:52:18.970Z,14.02
2017-07-10T03:53:12.979Z,14.02
2017-07-10T03:54:12.996Z,14.03
2017-07-10T03:55:08.153Z,14.02
2017-07-10T03:56:03.117Z,14.08
2017-07-10T03:56:57.126Z,14.16
2017-07-10T03:57:52.227Z,14.12
2017-07-10T03:58:41.574Z,14.14
2017-07-10T03:59:36.374Z,14.14
2017-07-10T04:00:30.439Z,14.17
2017-07-10T04:01:18.352Z,14.17
2017-07-10T04:02:07.483Z,14.20
2017-07-10T04:02:55.500Z,14.24
2017-07-10T04:03:44.522Z,14.22
2017-07-10T04:04:32.518Z,14.26
2017-07-10T04:05:21.629Z,14.28
2017-07-10T04:06:16.640Z,14.28
2017-07-10T04:07:10.696Z,14.26
2017-07-10T04:08:05.713Z,14.28
2017-07-10T04:08:59.778Z,14.28
2017-07-10T04:10:05.815Z,14.34
2017-07-10T04:10:53.850Z,14.34
2017-07-10T04:11:42.909Z,14.40
2017-07-10T04:12:42.985Z,14.36
2017-07-10T04:13:37.991Z,14.42
2017-07-10T04:14:26.105Z,14.38
2017-07-10T04:15:14.008Z,14.37
2017-07-10T04:16:02.127Z,14.44
2017-07-10T04:16:50.215Z,14.44
2017-07-10T04:17:44.198Z,14.43
2017-07-10T04:18:38.225Z,14.46
2017-07-10T04:19:38.274Z,14.48
2017-07-10T04:20:38.336Z,14.50
2017-07-10T04:21:33.448Z,14.55
2017-07-10T04:22:33.388Z,14.55
2017-07-10T04:23:33.412Z,14.51
2017-07-10T04:24:33.495Z,14.52
2017-07-10T04:25:33.558Z,14.56
2017-07-10T04:26:22.545Z,14.57
2017-07-10T04:27:16.602Z,14.61
2017-07-10T04:28:10.846Z,14.65
2017-07-10T04:29:04.646Z,14.69
2017-07-10T04:29:58.730Z,14.65
2017-07-10T04:30:52.731Z,14.68
2017-07-10T04:31:40.785Z,14.63
2017-07-10T04:32:41.835Z,14.65
2017-07-10T04:33:35.932Z,14.73
2017-07-10T04:34:29.996Z,14.73
2017-07-10T04:35:30.902Z,14.77
2017-07-10T04:36:25.015Z,14.75
2017-07-10T04:37:14.031Z,14.73
2017-07-10T04:38:03.118Z,14.72
2017-07-10T04:39:03.139Z,14.73
2017-07-10T04:39:57.229Z,14.70
2017-07-10T04:40:58.269Z,14.70
2017-07-10T04:41:59.229Z,14.76
2017-07-10T04:42:59.311Z,14.70
2017-07-10T04:43:47.748Z,14.70
2017-07-10T04:44:35.412Z,14.70
2017-07-10T04:45:24.441Z,14.74
2017-07-10T04:46:19.464Z,14.77
2017-07-10T04:47:13.535Z,14.80
2017-07-10T04:48:14.541Z,14.80
2017-07-10T04:49:08.600Z,14.78
2017-07-10T04:50:03.747Z,14.82
2017-07-10T04:50:58.606Z,14.87
2017-07-10T04:51:52.752Z,14.84
2017-07-10T04:52:46.726Z,14.82
2017-07-10T04:53:35.904Z,14.75
2017-07-10T04:54:29.832Z,14.79
2017-07-10T04:55:18.963Z,14.78
2017-07-10T04:56:12.934Z,14.74
2017-07-10T04:57:06.981Z,14.72
2017-07-10T04:58:01.136Z,14.79
2017-07-10T04:58:56.068Z,14.75
2017-07-10T04:59:51.266Z,14.73
2017-07-10T05:00:40.182Z,14.74
2017-07-10T05:01:35.256Z,14.67
2017-07-10T05:02:29.229Z,14.68
2017-07-10T05:03:23.383Z,14.64
2017-07-10T05:04:11.358Z,14.69
2017-07-10T05:05:05.440Z,14.68
2017-07-10T05:06:05.620Z,14.64
2017-07-10T05:06:54.400Z,14.64
2017-07-10T05:07:43.575Z,14.63
2017-07-10T05:08:38.591Z,14.63
2017-07-10T05:09:32.646Z,14.68
2017-07-10T05:10:32.609Z,14.63
2017-07-10T05:11:27.757Z,14.71
2017-07-10T05:12:16.797Z,14.68
2017-07-10T05:13:05.947Z,14.65
2017-07-10T05:13:54.034Z,14.65
2017-07-10T05:14:53.801Z,14.60
2017-07-10T05:15:48.982Z,14.66
2017-07-10T05:16:43.007Z,14.62
2017-07-10T05:17:42.986Z,14.64
2017-07-10T05:18:37.261Z,14.67
2017-07-10T05:19:37.072Z,14.64
2017-07-10T05:20:26.383Z,14.62
2017-07-10T05:21:15.373Z,14.62
2017-07-10T05:22:03.348Z,14.64
2017-07-10T05:22:57.231Z,14.68
2017-07-10T05:23:51.826Z,14.68
2017-07-10T05:24:51.303Z,14.66
2017-07-10T05:25:46.438Z,14.66
2017-07-10T05:26:40.545Z,14.66
2017-07-10T05:27:40.458Z,14.72
2017-07-10T05:28:34.519Z,14.72
2017-07-10T05:29:34.553Z,14.66
2017-07-10T05:30:29.606Z,14.72
2017-07-10T05:31:24.586Z,14.72
2017-07-10T05:32:24.684Z,14.76
2017-07-10T05:33:19.725Z,14.76
2017-07-10T05:34:14.698Z,14.83
2017-07-10T05:35:08.818Z,14.81
2017-07-10T05:36:02.823Z,14.78
2017-07-10T05:36:50.959Z,14.80
2017-07-10T05:37:38.987Z,14.87
2017-07-10T05:38:33.067Z,14.82
2017-07-10T05:39:26.990Z,14.87
2017-07-10T05:40:16.205Z,14.87
2017-07-10T05:41:05.138Z,14.93
2017-07-10T05:41:53.098Z,14.86
2017-07-10T05:42:48.172Z,14.88
2017-07-10T05:43:36.253Z,14.88
2017-07-10T05:44:24.376Z,14.92
2017-07-10T05:45:12.310Z,14.92
2017-07-10T05:46:12.380Z,14.97
2017-07-10T05:47:06.522Z,14.93
2017-07-10T05:48:01.456Z,14.90
2017-07-10T05:48:56.822Z,14.87
2017-07-10T05:49:50.516Z,14.82
2017-07-10T05:50:50.562Z,14.82
2017-07-10T05:51:45.619Z,14.81
2017-07-10T05:52:39.627Z,14.78
2017-07-10T05:53:39.739Z,14.78
2017-07-10T05:54:34.032Z,14.84
2017-07-10T05:55:28.812Z,14.78
2017-07-10T05:56:29.830Z,14.79
2017-07-10T05:57:29.893Z,14.76
2017-07-10T05:58:24.853Z,14.88
2017-07-10T05:59:24.952Z,14.87
2017-07-10T06:00:14.087Z,14.93
2017-07-10T06:01:08.044Z,14.94
2017-07-10T06:02:08.223Z,14.94
2017-07-10T06:03:02.065Z,14.76
2017-07-10T06:03:56.145Z,14.80
2017-07-10T06:04:50.163Z,14.78
2017-07-10T06:05:39.514Z,14.75
2017-07-10T06:06:33.336Z,14.83
2017-07-10T06:07:27.310Z,14.83
2017-07-10T06:08:21.409Z,14.82
2017-07-10T06:09:10.453Z,14.89
2017-07-10T06:09:59.549Z,14.91
2017-07-10T06:10:53.546Z,14.98
2017-07-10T06:11:48.548Z,14.96
2017-07-10T06:12:48.629Z,15.06
2017-07-10T06:13:37.674Z,15.08
2017-07-10T06:14:25.643Z,15.01
2017-07-10T06:15:19.799Z,15.04
2017-07-10T06:16:14.802Z,15.12
2017-07-10T06:17:08.850Z,15.08
2017-07-10T06:18:02.865Z,15.08
2017-07-10T06:18:57.866Z,15.10
2017-07-10T06:19:45.942Z,15.04
2017-07-10T06:20:45.976Z,15.02
2017-07-10T06:21:46.127Z,15.08
2017-07-10T06:22:46.037Z,15.12
2017-07-10T06:23:46.272Z,15.11
2017-07-10T06:24:46.128Z,15.14
2017-07-10T06:25:46.158Z,15.13
2017-07-10T06:26:46.303Z,15.10
2017-07-10T06:27:46.293Z,15.12
2017-07-10T06:28:46.313Z,15.10
2017-07-10T06:29:46.387Z,15.12
2017-07-10T06:30:46.513Z,15.08
2017-07-10T06:31:46.420Z,15.07
2017-07-10T06:32:46.476Z,15.12
2017-07-10T06:33:46.514Z,15.16
2017-07-10T06:34:46.603Z,15.26
2017-07-10T06:35:46.617Z,15.38
2017-07-10T06:36:46.615Z,15.48
2017-07-10T06:37:46.673Z,15.50
2017-07-10T06:38:46.725Z,15.52
2017-07-10T06:39:46.745Z,15.48
2017-07-10T06:40:46.781Z,15.47
2017-07-10T06:41:46.829Z,15.53
2017-07-10T06:42:46.847Z,15.48
2017-07-10T06:43:35.860Z,15.45
2017-07-10T06:44:29.958Z,15.43
2017-07-10T06:45:25.080Z,15.47
2017-07-10T06:46:12.999Z,15.45
2017-07-10T06:47:07.020Z,15.58
2017-07-10T06:48:01.154Z,15.64
2017-07-10T06:48:56.288Z,15.71
2017-07-10T06:49:51.298Z,15.67
2017-07-10T06:50:51.306Z,15.74
2017-07-10T06:51:46.239Z,15.76
2017-07-10T06:52:41.389Z,15.76
2017-07-10T06:53:30.419Z,15.82
2017-07-10T06:54:18.447Z,15.77
2017-07-10T06:55:07.549Z,15.74
2017-07-10T06:55:55.518Z,15.78
2017-07-10T06:56:44.513Z,15.91
2017-07-10T06:57:38.594Z,15.96
2017-07-10T06:58:39.611Z,16.12
2017-07-10T06:59:39.717Z,16.31
2017-07-10T07:00:39.794Z,16.48
2017-07-10T07:01:39.750Z,16.72
2017-07-10T07:02:39.784Z,16.89
2017-07-10T07:03:39.795Z,16.85
2017-07-10T07:04:40.013Z,16.84
2017-07-10T07:05:39.969Z,16.76
2017-07-10T07:06:40.123Z,16.84
2017-07-10T07:07:40.253Z,16.94
2017-07-10T07:08:40.068Z,17.10
2017-07-10T07:09:40.104Z,17.21
2017-07-10T07:10:46.200Z,17.25
2017-07-10T07:11:41.324Z,17.16
2017-07-10T07:12:35.246Z,16.92
2017-07-10T07:13:35.304Z,16.92
2017-07-10T07:14:30.271Z,16.95
2017-07-10T07:15:25.363Z,17.04
2017-07-10T07:16:25.334Z,17.04
2017-07-10T07:17:20.463Z,17.10
2017-07-10T07:18:15.641Z,17.05
2017-07-10T07:19:15.533Z,17.07
2017-07-10T07:20:15.590Z,17.01
2017-07-10T07:21:09.858Z,16.94
2017-07-10T07:22:09.872Z,16.89
2017-07-10T07:23:04.952Z,16.89
2017-07-10T07:24:05.125Z,16.94
2017-07-10T07:25:04.944Z,16.98
2017-07-10T07:26:04.982Z,17.00
2017-07-10T07:26:59.024Z,17.03
2017-07-10T07:27:59.084Z,17.06
2017-07-10T07:28:54.372Z,17.08
2017-07-10T07:29:49.159Z,17.07
2017-07-10T07:30:43.051Z,17.13
2017-07-10T07:31:43.042Z,17.00
2017-07-10T07:32:38.135Z,16.98
2017-07-10T07:33:33.130Z,16.94
2017-07-10T07:34:28.452Z,16.86
2017-07-10T07:35:17.335Z,16.74
2017-07-10T07:36:17.260Z,16.76
2017-07-10T07:37:06.472Z,16.70
2017-07-10T07:37:54.393Z,16.80
2017-07-10T07:38:54.913Z,16.62
2017-07-10T07:39:54.669Z,16.61
2017-07-10T07:40:54.512Z,16.67
2017-07-10T07:41:48.611Z,16.56
2017-07-10T07:42:42.608Z,16.58
2017-07-10T07:43:36.762Z,16.45
2017-07-10T07:44:30.944Z,16.38
2017-07-10T07:45:31.783Z,16.36
2017-07-10T07:46:31.772Z,16.47
2017-07-10T07:47:31.862Z,16.51
2017-07-10T07:48:31.970Z,16.54
2017-07-10T07:49:31.967Z,16.66
2017-07-10T07:50:25.954Z,16.77
2017-07-10T07:51:27.368Z,16.92
2017-07-10T07:52:27.030Z,16.96
2017-07-10T07:53:22.131Z,17.02
2017-07-10T07:54:17.329Z,17.02
2017-07-10T07:55:18.435Z,16.98
2017-07-10T07:56:18.309Z,16.96
2017-07-10T07:57:13.317Z,16.97
2017-07-10T07:58:08.331Z,16.94
2017-07-10T07:59:09.419Z,16.95
2017-07-10T08:00:09.451Z,16.90
2017-07-10T08:01:04.711Z,16.84
2017-07-10T08:01:59.659Z,16.82
2017-07-10T08:02:59.624Z,16.75
2017-07-10T08:03:55.025Z,16.79
2017-07-10T08:04:49.788Z,16.76
2017-07-10T08:05:43.780Z,16.84
2017-07-10T08:06:43.882Z,16.81
2017-07-10T08:07:38.733Z,16.92
2017-07-10T08:08:39.093Z,17.03
2017-07-10T08:09:38.792Z,17.18
2017-07-10T08:10:38.786Z,17.17
2017-07-10T08:11:32.911Z,17.20
2017-07-10T08:12:33.148Z,17.22
2017-07-10T08:13:28.117Z,17.20
2017-07-10T08:14:23.022Z,17.10
2017-07-10T08:15:17.147Z,17.05
2017-07-10T08:16:05.297Z,17.13
2017-07-10T08:16:54.128Z,17.05
2017-07-10T08:17:42.313Z,17.11
2017-07-10T08:18:36.381Z,17.22
2017-07-10T08:19:25.359Z,17.34
2017-07-10T08:20:14.412Z,17.29
2017-07-10T08:21:03.492Z,17.40
2017-07-10T08:21:52.508Z,17.37
2017-07-10T08:22:40.593Z,17.46
2017-07-10T08:23:34.663Z,17.45
2017-07-10T08:24:23.690Z,17.31
2017-07-10T08:25:12.692Z,17.40
2017-07-10T08:26:00.743Z,17.36
2017-07-10T08:26:48.755Z,17.38
2017-07-10T08:27:36.915Z,17.36
2017-07-10T08:28:25.896Z,17.38
2017-07-10T08:29:14.069Z,17.39
2017-07-10T08:30:03.133Z,17.47
2017-07-10T08:30:51.073Z,17.44
2017-07-10T08:31:40.071Z,17.39
2017-07-10T08:32:35.091Z,17.37
2017-07-10T08:33:29.381Z,17.36
2017-07-10T08:34:17.221Z,17.30
2017-07-10T08:35:05.497Z,17.28
2017-07-10T08:35:54.313Z,17.31
2017-07-10T08:36:42.374Z,17.39
2017-07-10T08:37:36.364Z,17.52
2017-07-10T08:38:30.481Z,17.38
2017-07-10T08:39:24.562Z,17.30
2017-07-10T08:40:18.730Z,17.23
2017-07-10T08:41:13.613Z,17.26
2017-07-10T08:42:08.752Z,17.34
2017-07-10T08:43:02.642Z,17.31
2017-07-10T08:44:02.740Z,17.36
2017-07-10T08:44:57.812Z,17.36
2017-07-10T08:45:52.822Z,17.52
2017-07-10T08:46:52.787Z,17.62
2017-07-10T08:47:47.979Z,17.82
2017-07-10T08:48:42.983Z,17.84
2017-07-10T08:49:37.090Z,17.78
2017-07-10T08:50:37.090Z,17.63
2017-07-10T08:51:32.097Z,17.63
2017-07-10T08:52:27.308Z,17.67
2017-07-10T08:53:27.409Z,17.84
2017-07-10T08:54:22.380Z,17.93
2017-07-10T08:55:17.204Z,17.92
2017-07-10T08:56:06.453Z,17.65
2017-07-10T08:56:54.437Z,17.74
2017-07-10T08:57:49.362Z,17.75
2017-07-10T08:58:43.505Z,17.72
2017-07-10T08:59:32.717Z,17.72
2017-07-10T09:00:20.603Z,17.86
2017-07-10T09:01:20.571Z,17.99
2017-07-10T09:02:14.574Z,18.08
2017-07-10T09:03:02.636Z,18.10
2017-07-10T09:03:57.052Z,18.03
2017-07-10T09:04:56.942Z,18.08
2017-07-10T09:05:50.769Z,18.13
2017-07-10T09:06:39.869Z,18.10
2017-07-10T09:07:39.995Z,18.06
2017-07-10T09:08:34.112Z,18.12
2017-07-10T09:09:34.276Z,18.26
2017-07-10T09:10:28.297Z,18.32
2017-07-10T09:11:16.157Z,18.45
2017-07-10T09:12:16.464Z,18.50
2017-07-10T09:13:16.399Z,18.54
2017-07-10T09:14:10.435Z,18.62
2017-07-10T09:15:04.571Z,18.61
2017-07-10T09:15:59.449Z,18.86
2017-07-10T09:16:53.373Z,18.96
2017-07-10T09:17:53.562Z,19.10
2017-07-10T09:18:47.666Z,19.26
2017-07-10T09:19:41.630Z,19.36
2017-07-10T09:20:30.553Z,19.48
2017-07-10T09:21:18.714Z,19.57
2017-07-10T09:22:12.649Z,19.73
2017-07-10T09:23:00.700Z,19.67
2017-07-10T09:23:55.088Z,19.62
2017-07-10T09:24:54.781Z,19.66
2017-07-10T09:25:49.076Z,19.65
2017-07-10T09:26:49.101Z,19.68
2017-07-10T09:27:43.238Z,19.76
2017-07-10T09:28:32.263Z,19.97
2017-07-10T09:29:26.387Z,20.09
2017-07-10T09:30:20.391Z,20.23
2017-07-10T09:31:14.683Z,20.00
2017-07-10T09:32:09.506Z,20.04
2017-07-10T09:32:58.592Z,20.14
2017-07-10T09:33:53.592Z,20.27
2017-07-10T09:34:54.449Z,20.18
2017-07-10T09:35:49.508Z,20.50
2017-07-10T09:36:44.781Z,20.56
2017-07-10T09:37:33.599Z,20.71
2017-07-10T09:38:27.862Z,20.54
2017-07-10T09:39:21.835Z,20.80
2017-07-10T09:40:16.946Z,20.93
2017-07-10T09:41:05.851Z,20.94
2017-07-10T09:42:01.217Z,21.00
2017-07-10T09:42:49.045Z,21.09
2017-07-10T09:43:44.106Z,21.34
2017-07-10T09:44:39.195Z,21.84
2017-07-10T09:45:33.141Z,21.98
2017-07-10T09:46:33.394Z,21.95
2017-07-10T09:47:27.333Z,21.95
2017-07-10T09:48:27.445Z,21.75
2017-07-10T09:49:16.491Z,21.94
2017-07-10T09:50:11.351Z,21.95
2017-07-10T09:51:05.562Z,22.08
2017-07-10T09:52:00.650Z,22.06
2017-07-10T09:52:54.612Z,21.87
2017-07-10T09:53:49.582Z,21.87
2017-07-10T09:54:43.790Z,22.09
2017-07-10T09:55:38.932Z,22.12
2017-07-10T09:56:27.890Z,22.69
2017-07-10T09:57:16.854Z,22.80
2017-07-10T09:58:11.053Z,22.90
2017-07-10T09:58:59.069Z,22.87
2017-07-10T09:59:54.137Z,23.32
2017-07-10T10:00:48.170Z,23.47
2017-07-10T10:01:43.257Z,23.84
2017-07-10T10:02:32.336Z,23.95
2017-07-10T10:03:33.369Z,24.05
2017-07-10T10:04:33.466Z,24.36
2017-07-10T10:05:28.371Z,24.48
2017-07-10T10:06:17.610Z,24.62
2017-07-10T10:07:06.534Z,24.73
2017-07-10T10:07:55.660Z,25.01
2017-07-10T10:08:49.790Z,25.24
2017-07-10T10:09:49.736Z,25.10
2017-07-10T10:10:44.824Z,25.12
2017-07-10T10:11:33.829Z,25.10
2017-07-10T10:12:39.979Z,25.12
2017-07-10T10:13:28.991Z,25.46
2017-07-10T10:14:23.053Z,25.85
2017-07-10T10:15:17.148Z,26.10
2017-07-10T10:16:11.234Z,26.31
2017-07-10T10:17:11.279Z,26.24
2017-07-10T10:18:05.347Z,26.44
2017-07-10T10:19:05.713Z,26.72
2017-07-10T10:19:59.408Z,26.77
2017-07-10T10:20:53.510Z,26.65
2017-07-10T10:21:41.661Z,26.56
2017-07-10T10:22:30.765Z,26.51
2017-07-10T10:23:19.849Z,26.73
2017-07-10T10:24:08.926Z,26.91
2017-07-10T10:25:02.988Z,27.14
2017-07-10T10:25:58.029Z,27.52
2017-07-10T10:26:47.180Z,28.04
2017-07-10T10:27:42.260Z,28.70
2017-07-10T10:28:30.335Z,29.16
2017-07-10T10:29:30.454Z,29.10
2017-07-10T10:30:24.401Z,28.76
2017-07-10T10:31:18.550Z,28.61
2017-07-10T10:32:07.582Z,28.42
2017-07-10T10:32:56.721Z,28.56
2017-07-10T10:33:50.730Z,28.68
2017-07-10T10:34:44.993Z,28.53
2017-07-10T10:35:38.904Z,28.17
2017-07-10T10:36:34.058Z,27.73
2017-07-10T10:37:28.160Z,27.59
2017-07-10T10:38:23.152Z,27.36
2017-07-10T10:39:12.350Z,27.25
2017-07-10T10:40:06.440Z,26.98
2017-07-10T10:41:00.415Z,26.96
2017-07-10T10:41:48.508Z,26.91
2017-07-10T10:42:43.688Z,26.89
2017-07-10T10:43:43.691Z,26.79
2017-07-10T10:44:31.789Z,26.61
2017-07-10T10:45:20.961Z,26.64
2017-07-10T10:46:16.004Z,26.75
2017-07-10T10:47:10.013Z,26.88
2017-07-10T10:48:11.103Z,26.89
2017-07-10T10:49:06.243Z,26.78
2017-07-10T10:50:01.293Z,26.69
2017-07-10T10:50:56.326Z,26.56
2017-07-10T10:51:45.377Z,26.32
2017-07-10T10:52:39.510Z,25.98
2017-07-10T10:53:34.537Z,25.81
2017-07-10T10:54:22.686Z,25.85
2017-07-10T10:55:11.689Z,25.85
2017-07-10T10:56:00.765Z,25.75
2017-07-10T10:56:49.886Z,25.69
2017-07-10T10:57:43.931Z,25.64
2017-07-10T10:58:32.015Z,25.71
2017-07-10T10:59:19.999Z,25.71
2017-07-10T11:00:09.127Z,25.80
2017-07-10T11:01:03.200Z,25.94
2017-07-10T11:01:57.318Z,25.94
2017-07-10T11:02:46.419Z,25.90
2017-07-10T11:03:41.434Z,25.90
2017-07-10T11:04:41.521Z,26.16
2017-07-10T11:05:30.631Z,26.32
2017-07-10T11:06:27.701Z,26.57
2017-07-10T11:07:12.874Z,26.83
2017-07-10T11:08:01.876Z,26.96
2017-07-10T11:08:56.047Z,27.02
2017-07-10T11:09:45.026Z,26.95
2017-07-10T11:10:39.078Z,27.04
2017-07-10T11:11:28.186Z,27.27
2017-07-10T11:12:22.273Z,27.43
2017-07-10T11:13:16.377Z,27.34
2017-07-10T11:14:05.437Z,27.29
2017-07-10T11:14:59.494Z,27.02
2017-07-10T11:15:53.610Z,26.83
2017-07-10T11:16:48.708Z,26.50
2017-07-10T11:17:42.778Z,26.40
2017-07-10T11:18:36.760Z,26.20
2017-07-10T11:19:24.880Z,26.09
2017-07-10T11:20:18.940Z,25.91
2017-07-10T11:21:13.043Z,25.81
2017-07-10T11:22:01.120Z,25.77
2017-07-10T11:22:55.200Z,25.84
2017-07-10T11:23:49.271Z,26.03
2017-07-10T11:24:44.445Z,26.32
2017-07-10T11:25:38.433Z,26.49
2017-07-10T11:26:27.490Z,26.48
2017-07-10T11:27:21.551Z,26.59
2017-07-10T11:28:16.670Z,26.37
2017-07-10T11:29:05.810Z,26.34
2017-07-10T11:29:59.846Z,26.49
2017-07-10T11:30:54.844Z,26.73
2017-07-10T11:31:55.035Z,26.94
2017-07-10T11:32:49.056Z,27.00
2017-07-10T11:33:44.156Z,27.14
2017-07-10T11:34:39.170Z,27.36
2017-07-10T11:35:33.297Z,27.33
2017-07-10T11:36:27.386Z,27.19
2017-07-10T11:37:21.444Z,26.97
2017-07-10T11:38:09.547Z,26.87
2017-07-10T11:39:03.617Z,26.80
2017-07-10T11:39:58.758Z,26.80
2017-07-10T11:40:52.740Z,26.68
2017-07-10T11:41:41.829Z,26.69
2017-07-10T11:42:31.001Z,26.87
2017-07-10T11:43:20.060Z,27.14
2017-07-10T11:44:20.085Z,27.34